sensor_id;sensor_type;location;lat;lon;timestamp;temperature;humidity
59977;DHT22;45837;51.076;3.578;2023-07-29T00:02:05;23.10;59.00
59977;DHT22;45837;51.076;3.578;2023-07-29T00:04:31;23.10;59.00
59977;DHT22;45837;51.076;3.578;2023-07-29T00:06:57;23.20;58.90
59977;DHT22;45837;51.076;3.578;2023-07-29T00:09:22;23.10;58.90
59977;DHT22;45837;51.076;3.578;2023-07-29T00:11:48;23.10;58.90
59977;DHT22;45837;51.076;3.578;2023-07-29T00:14:13;23.10;59.00
59977;DHT22;45837;51.076;3.578;2023-07-29T00:16:39;23.10;58.70
59977;DHT22;45837;51.076;3.578;2023-07-29T00:19:05;23.10;58.90
59977;DHT22;45837;51.076;3.578;2023-07-29T00:21:30;23.10;59.00
59977;DHT22;45837;51.076;3.578;2023-07-29T00:23:56;23.10;59.00
59977;DHT22;45837;51.076;3.578;2023-07-29T00:26:26;23.10;58.50
59977;DHT22;45837;51.076;3.578;2023-07-29T00:28:57;23.10;58.40
59977;DHT22;45837;51.076;3.578;2023-07-29T00:31:23;23.10;58.20
59977;DHT22;45837;51.076;3.578;2023-07-29T00:33:50;23.10;58.90
59977;DHT22;45837;51.076;3.578;2023-07-29T00:36:15;23.10;59.00
59977;DHT22;45837;51.076;3.578;2023-07-29T00:38:41;23.10;58.90
59977;DHT22;45837;51.076;3.578;2023-07-29T00:41:07;23.10;58.60
59977;DHT22;45837;51.076;3.578;2023-07-29T00:43:34;23.10;58.40
59977;DHT22;45837;51.076;3.578;2023-07-29T00:46:01;23.10;58.90
59977;DHT22;45837;51.076;3.578;2023-07-29T00:48:27;23.10;58.60
59977;DHT22;45837;51.076;3.578;2023-07-29T00:50:53;23.10;58.90
59977;DHT22;45837;51.076;3.578;2023-07-29T00:53:19;23.10;58.20
59977;DHT22;45837;51.076;3.578;2023-07-29T00:55:49;23.10;58.60
59977;DHT22;45837;51.076;3.578;2023-07-29T00:58:15;23.10;58.80
59977;DHT22;45837;51.076;3.578;2023-07-29T01:00:40;23.10;58.70
59977;DHT22;45837;51.076;3.578;2023-07-29T01:03:06;23.10;58.60
59977;DHT22;45837;51.076;3.578;2023-07-29T01:05:35;23.10;58.80
59977;DHT22;45837;51.076;3.578;2023-07-29T01:08:06;23.10;58.30
59977;DHT22;45837;51.076;3.578;2023-07-29T01:10:38;23.10;58.10
59977;DHT22;45837;51.076;3.578;2023-07-29T01:13:16;23.10;58.60
59977;DHT22;45837;51.076;3.578;2023-07-29T01:15:45;23.10;58.10
59977;DHT22;45837;51.076;3.578;2023-07-29T01:18:15;23.10;58.30
59977;DHT22;45837;51.076;3.578;2023-07-29T01:20:45;23.10;58.30
59977;DHT22;45837;51.076;3.578;2023-07-29T01:23:11;23.10;58.40
59977;DHT22;45837;51.076;3.578;2023-07-29T01:25:37;23.10;59.00
59977;DHT22;45837;51.076;3.578;2023-07-29T01:28:04;23.10;59.00
59977;DHT22;45837;51.076;3.578;2023-07-29T01:30:33;23.10;58.90
59977;DHT22;45837;51.076;3.578;2023-07-29T01:36:08;23.00;58.10
59977;DHT22;45837;51.076;3.578;2023-07-29T01:38:37;23.10;58.40
59977;DHT22;45837;51.076;3.578;2023-07-29T01:41:04;23.10;58.30
59977;DHT22;45837;51.076;3.578;2023-07-29T01:43:31;23.00;58.40
59977;DHT22;45837;51.076;3.578;2023-07-29T01:45:57;23.10;58.40
59977;DHT22;45837;51.076;3.578;2023-07-29T01:48:23;23.10;58.80
59977;DHT22;45837;51.076;3.578;2023-07-29T01:50:50;23.10;58.80
59977;DHT22;45837;51.076;3.578;2023-07-29T01:53:15;23.10;58.60
59977;DHT22;45837;51.076;3.578;2023-07-29T01:55:42;23.10;59.00
59977;DHT22;45837;51.076;3.578;2023-07-29T01:58:07;23.00;58.30
59977;DHT22;45837;51.076;3.578;2023-07-29T02:00:35;23.10;58.90
59977;DHT22;45837;51.076;3.578;2023-07-29T02:03:01;23.10;58.80
59977;DHT22;45837;51.076;3.578;2023-07-29T02:05:27;23.10;59.10
59977;DHT22;45837;51.076;3.578;2023-07-29T02:07:53;23.00;58.70
59977;DHT22;45837;51.076;3.578;2023-07-29T02:10:18;23.00;58.80
59977;DHT22;45837;51.076;3.578;2023-07-29T02:12:44;23.10;58.70
59977;DHT22;45837;51.076;3.578;2023-07-29T02:15:10;23.00;58.90
59977;DHT22;45837;51.076;3.578;2023-07-29T02:17:36;23.10;58.90
59977;DHT22;45837;51.076;3.578;2023-07-29T02:20:02;23.00;58.30
59977;DHT22;45837;51.076;3.578;2023-07-29T02:22:29;23.00;58.30
59977;DHT22;45837;51.076;3.578;2023-07-29T02:24:55;23.10;58.80
59977;DHT22;45837;51.076;3.578;2023-07-29T02:27:20;23.00;58.90
59977;DHT22;45837;51.076;3.578;2023-07-29T02:29:46;23.00;58.90
59977;DHT22;45837;51.076;3.578;2023-07-29T02:32:12;23.00;58.50
59977;DHT22;45837;51.076;3.578;2023-07-29T02:34:37;23.00;58.60
59977;DHT22;45837;51.076;3.578;2023-07-29T02:37:03;23.00;58.90
59977;DHT22;45837;51.076;3.578;2023-07-29T02:39:30;23.00;58.50
59977;DHT22;45837;51.076;3.578;2023-07-29T02:41:56;23.00;58.20
59977;DHT22;45837;51.076;3.578;2023-07-29T02:44:24;23.00;58.50
59977;DHT22;45837;51.076;3.578;2023-07-29T02:46:49;23.00;58.30
59977;DHT22;45837;51.076;3.578;2023-07-29T02:49:17;23.00;58.60
59977;DHT22;45837;51.076;3.578;2023-07-29T02:51:43;23.00;58.60
59977;DHT22;45837;51.076;3.578;2023-07-29T02:54:09;23.00;58.60
59977;DHT22;45837;51.076;3.578;2023-07-29T02:56:34;23.00;58.70
59977;DHT22;45837;51.076;3.578;2023-07-29T02:59:01;23.00;58.80
59977;DHT22;45837;51.076;3.578;2023-07-29T03:01:29;23.00;58.50
59977;DHT22;45837;51.076;3.578;2023-07-29T03:03:55;23.00;58.80
59977;DHT22;45837;51.076;3.578;2023-07-29T03:06:20;23.00;58.50
59977;DHT22;45837;51.076;3.578;2023-07-29T03:08:46;23.00;58.70
59977;DHT22;45837;51.076;3.578;2023-07-29T03:11:12;23.00;58.80
59977;DHT22;45837;51.076;3.578;2023-07-29T03:13:39;23.00;58.20
59977;DHT22;45837;51.076;3.578;2023-07-29T03:16:11;23.00;58.20
59977;DHT22;45837;51.076;3.578;2023-07-29T03:18:38;23.00;58.00
59977;DHT22;45837;51.076;3.578;2023-07-29T03:21:04;23.00;58.60
59977;DHT22;45837;51.076;3.578;2023-07-29T03:23:30;23.00;59.00
59977;DHT22;45837;51.076;3.578;2023-07-29T03:25:56;23.00;58.30
59977;DHT22;45837;51.076;3.578;2023-07-29T03:28:27;23.00;58.20
59977;DHT22;45837;51.076;3.578;2023-07-29T03:30:53;24.10;58.60
59977;DHT22;45837;51.076;3.578;2023-07-29T03:33:19;23.00;58.20
59977;DHT22;45837;51.076;3.578;2023-07-29T03:35:45;23.00;58.70
59977;DHT22;45837;51.076;3.578;2023-07-29T03:38:11;22.90;58.70
59977;DHT22;45837;51.076;3.578;2023-07-29T03:40:37;23.00;58.30
59977;DHT22;45837;51.076;3.578;2023-07-29T03:43:03;23.00;58.30
59977;DHT22;45837;51.076;3.578;2023-07-29T03:45:28;23.00;58.70
59977;DHT22;45837;51.076;3.578;2023-07-29T03:47:54;23.00;58.80
59977;DHT22;45837;51.076;3.578;2023-07-29T03:50:20;23.00;58.70
59977;DHT22;45837;51.076;3.578;2023-07-29T03:52:45;23.00;58.80
59977;DHT22;45837;51.076;3.578;2023-07-29T03:55:11;22.90;58.70
59977;DHT22;45837;51.076;3.578;2023-07-29T03:57:37;23.00;58.50
59977;DHT22;45837;51.076;3.578;2023-07-29T04:00:03;23.00;59.00
59977;DHT22;45837;51.076;3.578;2023-07-29T04:02:30;23.00;58.20
59977;DHT22;45837;51.076;3.578;2023-07-29T04:04:55;23.00;58.70
59977;DHT22;45837;51.076;3.578;2023-07-29T04:07:21;23.00;58.70
59977;DHT22;45837;51.076;3.578;2023-07-29T04:09:47;23.00;58.90
59977;DHT22;45837;51.076;3.578;2023-07-29T04:12:12;23.00;58.90
59977;DHT22;45837;51.076;3.578;2023-07-29T04:14:38;23.00;58.90
59977;DHT22;45837;51.076;3.578;2023-07-29T04:17:04;23.00;58.60
59977;DHT22;45837;51.076;3.578;2023-07-29T04:19:30;23.00;58.80
59977;DHT22;45837;51.076;3.578;2023-07-29T04:21:55;23.00;58.90
59977;DHT22;45837;51.076;3.578;2023-07-29T04:24:21;22.90;58.90
59977;DHT22;45837;51.076;3.578;2023-07-29T04:26:49;23.00;58.50
59977;DHT22;45837;51.076;3.578;2023-07-29T04:29:14;23.00;58.20
59977;DHT22;45837;51.076;3.578;2023-07-29T04:31:40;23.00;58.60
59977;DHT22;45837;51.076;3.578;2023-07-29T04:34:07;23.00;58.60
59977;DHT22;45837;51.076;3.578;2023-07-29T04:36:32;22.90;58.70
59977;DHT22;45837;51.076;3.578;2023-07-29T04:38:58;22.90;58.90
59977;DHT22;45837;51.076;3.578;2023-07-29T04:41:24;22.90;59.00
59977;DHT22;45837;51.076;3.578;2023-07-29T04:43:50;23.00;58.70
59977;DHT22;45837;51.076;3.578;2023-07-29T04:46:16;23.00;58.80
59977;DHT22;45837;51.076;3.578;2023-07-29T04:48:41;22.90;59.00
59977;DHT22;45837;51.076;3.578;2023-07-29T04:51:07;22.90;58.80
59977;DHT22;45837;51.076;3.578;2023-07-29T04:53:33;22.90;58.70
59977;DHT22;45837;51.076;3.578;2023-07-29T04:56:00;22.90;58.50
59977;DHT22;45837;51.076;3.578;2023-07-29T04:58:26;22.90;58.40
59977;DHT22;45837;51.076;3.578;2023-07-29T05:00:54;22.90;58.60
59977;DHT22;45837;51.076;3.578;2023-07-29T05:03:19;22.90;58.90
59977;DHT22;45837;51.076;3.578;2023-07-29T05:05:45;23.00;58.70
59977;DHT22;45837;51.076;3.578;2023-07-29T05:08:11;22.90;58.80
59977;DHT22;45837;51.076;3.578;2023-07-29T05:10:37;23.00;58.90
59977;DHT22;45837;51.076;3.578;2023-07-29T05:13:03;23.00;58.60
59977;DHT22;45837;51.076;3.578;2023-07-29T05:15:28;23.10;58.60
59977;DHT22;45837;51.076;3.578;2023-07-29T05:17:54;23.10;58.30
59977;DHT22;45837;51.076;3.578;2023-07-29T05:20:20;23.10;58.40
59977;DHT22;45837;51.076;3.578;2023-07-29T05:22:46;23.20;58.30
59977;DHT22;45837;51.076;3.578;2023-07-29T05:25:11;23.30;58.10
59977;DHT22;45837;51.076;3.578;2023-07-29T05:27:37;23.30;58.20
59977;DHT22;45837;51.076;3.578;2023-07-29T05:30:03;23.30;57.80
59977;DHT22;45837;51.076;3.578;2023-07-29T05:32:29;23.40;57.50
59977;DHT22;45837;51.076;3.578;2023-07-29T05:34:55;23.40;57.60
59977;DHT22;45837;51.076;3.578;2023-07-29T05:37:22;23.40;57.70
59977;DHT22;45837;51.076;3.578;2023-07-29T05:39:47;23.50;58.10
59977;DHT22;45837;51.076;3.578;2023-07-29T05:42:13;23.50;57.90
59977;DHT22;45837;51.076;3.578;2023-07-29T05:44:39;23.40;57.90
59977;DHT22;45837;51.076;3.578;2023-07-29T05:47:05;23.40;58.30
59977;DHT22;45837;51.076;3.578;2023-07-29T05:49:31;23.40;58.10
59977;DHT22;45837;51.076;3.578;2023-07-29T05:51:56;23.40;58.40
59977;DHT22;45837;51.076;3.578;2023-07-29T05:54:22;23.40;58.50
59977;DHT22;45837;51.076;3.578;2023-07-29T05:56:48;23.40;58.40
59977;DHT22;45837;51.076;3.578;2023-07-29T05:59:13;23.40;58.30
59977;DHT22;45837;51.076;3.578;2023-07-29T06:01:39;23.40;58.40
59977;DHT22;45837;51.076;3.578;2023-07-29T06:04:05;23.30;58.50
59977;DHT22;45837;51.076;3.578;2023-07-29T06:06:31;23.30;58.50
59977;DHT22;45837;51.076;3.578;2023-07-29T06:08:57;23.30;58.40
59977;DHT22;45837;51.076;3.578;2023-07-29T06:11:23;23.40;58.10
59977;DHT22;45837;51.076;3.578;2023-07-29T06:13:49;23.40;58.80
59977;DHT22;45837;51.076;3.578;2023-07-29T06:16:15;23.40;59.00
59977;DHT22;45837;51.076;3.578;2023-07-29T06:18:41;23.30;58.80
59977;DHT22;45837;51.076;3.578;2023-07-29T06:21:07;23.40;58.70
59977;DHT22;45837;51.076;3.578;2023-07-29T06:23:33;23.30;58.20
59977;DHT22;45837;51.076;3.578;2023-07-29T06:25:59;23.30;58.20
59977;DHT22;45837;51.076;3.578;2023-07-29T06:28:26;23.30;58.50
59977;DHT22;45837;51.076;3.578;2023-07-29T06:30:52;23.30;58.40
59977;DHT22;45837;51.076;3.578;2023-07-29T06:33:18;23.30;58.10
59977;DHT22;45837;51.076;3.578;2023-07-29T06:35:43;23.30;58.70
59977;DHT22;45837;51.076;3.578;2023-07-29T06:38:09;23.30;58.50
59977;DHT22;45837;51.076;3.578;2023-07-29T06:40:34;23.30;58.80
59977;DHT22;45837;51.076;3.578;2023-07-29T06:43:00;23.30;58.50
59977;DHT22;45837;51.076;3.578;2023-07-29T06:45:26;23.30;58.70
59977;DHT22;45837;51.076;3.578;2023-07-29T06:47:52;23.40;58.20
59977;DHT22;45837;51.076;3.578;2023-07-29T06:50:17;23.40;58.70
59977;DHT22;45837;51.076;3.578;2023-07-29T06:52:43;23.40;58.50
59977;DHT22;45837;51.076;3.578;2023-07-29T06:55:09;23.40;58.90
59977;DHT22;45837;51.076;3.578;2023-07-29T06:57:34;23.40;58.60
59977;DHT22;45837;51.076;3.578;2023-07-29T07:00:00;23.40;58.60
59977;DHT22;45837;51.076;3.578;2023-07-29T07:02:26;23.40;58.10
59977;DHT22;45837;51.076;3.578;2023-07-29T07:04:52;23.40;58.60
59977;DHT22;45837;51.076;3.578;2023-07-29T07:07:17;23.40;58.60
59977;DHT22;45837;51.076;3.578;2023-07-29T07:09:43;23.40;58.50
59977;DHT22;45837;51.076;3.578;2023-07-29T07:12:08;23.30;58.70
59977;DHT22;45837;51.076;3.578;2023-07-29T07:14:34;23.40;58.40
59977;DHT22;45837;51.076;3.578;2023-07-29T07:17:00;23.40;58.60
59977;DHT22;45837;51.076;3.578;2023-07-29T07:19:25;23.40;58.40
59977;DHT22;45837;51.076;3.578;2023-07-29T07:21:51;23.40;58.50
59977;DHT22;45837;51.076;3.578;2023-07-29T07:24:17;23.40;58.60
59977;DHT22;45837;51.076;3.578;2023-07-29T07:26:42;23.30;58.40
59977;DHT22;45837;51.076;3.578;2023-07-29T07:29:08;23.30;58.50
59977;DHT22;45837;51.076;3.578;2023-07-29T07:31:34;23.30;58.50
59977;DHT22;45837;51.076;3.578;2023-07-29T07:34:00;23.40;58.20
59977;DHT22;45837;51.076;3.578;2023-07-29T07:36:27;23.40;58.30
59977;DHT22;45837;51.076;3.578;2023-07-29T07:38:53;23.40;58.60
59977;DHT22;45837;51.076;3.578;2023-07-29T07:41:18;23.40;58.70
59977;DHT22;45837;51.076;3.578;2023-07-29T07:43:44;23.40;58.70
59977;DHT22;45837;51.076;3.578;2023-07-29T07:46:10;23.40;58.60
59977;DHT22;45837;51.076;3.578;2023-07-29T07:48:35;23.40;58.50
59977;DHT22;45837;51.076;3.578;2023-07-29T07:51:09;23.40;58.70
59977;DHT22;45837;51.076;3.578;2023-07-29T07:53:35;23.40;58.00
59977;DHT22;45837;51.076;3.578;2023-07-29T07:56:01;23.40;58.60
59977;DHT22;45837;51.076;3.578;2023-07-29T07:58:26;23.40;58.60
59977;DHT22;45837;51.076;3.578;2023-07-29T08:00:52;23.40;58.80
59977;DHT22;45837;51.076;3.578;2023-07-29T08:03:18;23.40;58.80
59977;DHT22;45837;51.076;3.578;2023-07-29T08:05:43;23.40;58.70
59977;DHT22;45837;51.076;3.578;2023-07-29T08:08:09;23.40;58.90
59977;DHT22;45837;51.076;3.578;2023-07-29T08:10:34;23.40;58.60
59977;DHT22;45837;51.076;3.578;2023-07-29T08:13:00;23.40;58.60
59977;DHT22;45837;51.076;3.578;2023-07-29T08:15:26;23.40;58.70
59977;DHT22;45837;51.076;3.578;2023-07-29T08:17:51;23.40;58.60
59977;DHT22;45837;51.076;3.578;2023-07-29T08:20:17;23.50;58.60
59977;DHT22;45837;51.076;3.578;2023-07-29T08:22:42;23.50;58.80
59977;DHT22;45837;51.076;3.578;2023-07-29T08:25:08;23.50;58.80
59977;DHT22;45837;51.076;3.578;2023-07-29T08:27:34;23.60;58.60
59977;DHT22;45837;51.076;3.578;2023-07-29T08:30:00;23.50;58.40
59977;DHT22;45837;51.076;3.578;2023-07-29T08:32:25;23.50;58.60
59977;DHT22;45837;51.076;3.578;2023-07-29T08:34:51;23.60;58.90
59977;DHT22;45837;51.076;3.578;2023-07-29T08:37:17;23.50;58.60
59977;DHT22;45837;51.076;3.578;2023-07-29T08:39:42;23.60;58.70
59977;DHT22;45837;51.076;3.578;2023-07-29T08:42:08;23.60;58.70
59977;DHT22;45837;51.076;3.578;2023-07-29T08:44:43;23.60;58.00
59977;DHT22;45837;51.076;3.578;2023-07-29T08:47:09;23.60;57.80
59977;DHT22;45837;51.076;3.578;2023-07-29T08:49:35;23.60;58.00
59977;DHT22;45837;51.076;3.578;2023-07-29T08:52:01;23.60;58.10
59977;DHT22;45837;51.076;3.578;2023-07-29T08:54:26;23.60;58.90
59977;DHT22;45837;51.076;3.578;2023-07-29T08:56:52;23.60;58.70
59977;DHT22;45837;51.076;3.578;2023-07-29T08:59:18;23.60;58.50
59977;DHT22;45837;51.076;3.578;2023-07-29T09:01:44;23.60;58.00
59977;DHT22;45837;51.076;3.578;2023-07-29T09:04:10;23.60;58.60
59977;DHT22;45837;51.076;3.578;2023-07-29T09:06:36;23.60;58.50
59977;DHT22;45837;51.076;3.578;2023-07-29T09:09:03;23.60;57.90
59977;DHT22;45837;51.076;3.578;2023-07-29T09:11:29;23.60;59.00
59977;DHT22;45837;51.076;3.578;2023-07-29T09:13:55;23.60;57.90
59977;DHT22;45837;51.076;3.578;2023-07-29T09:16:21;23.90;58.70
59977;DHT22;45837;51.076;3.578;2023-07-29T09:18:47;23.60;58.40
59977;DHT22;45837;51.076;3.578;2023-07-29T09:21:13;23.60;58.00
59977;DHT22;45837;51.076;3.578;2023-07-29T09:23:43;23.60;57.90
59977;DHT22;45837;51.076;3.578;2023-07-29T09:26:09;23.60;57.90
59977;DHT22;45837;51.076;3.578;2023-07-29T09:28:36;23.60;58.00
59977;DHT22;45837;51.076;3.578;2023-07-29T09:31:02;23.60;57.90
59977;DHT22;45837;51.076;3.578;2023-07-29T09:33:28;23.60;58.50
59977;DHT22;45837;51.076;3.578;2023-07-29T09:35:54;23.60;57.90
59977;DHT22;45837;51.076;3.578;2023-07-29T09:38:25;23.60;58.50
59977;DHT22;45837;51.076;3.578;2023-07-29T09:40:51;23.60;57.90
59977;DHT22;45837;51.076;3.578;2023-07-29T09:43:19;23.60;57.90
59977;DHT22;45837;51.076;3.578;2023-07-29T09:45:51;23.60;57.90
59977;DHT22;45837;51.076;3.578;2023-07-29T09:48:17;23.60;57.90
59977;DHT22;45837;51.076;3.578;2023-07-29T09:50:46;23.60;58.00
59977;DHT22;45837;51.076;3.578;2023-07-29T09:53:12;23.60;58.00
59977;DHT22;45837;51.076;3.578;2023-07-29T09:55:38;23.60;58.70
59977;DHT22;45837;51.076;3.578;2023-07-29T09:58:03;23.60;58.50
59977;DHT22;45837;51.076;3.578;2023-07-29T10:00:33;23.60;58.40
59977;DHT22;45837;51.076;3.578;2023-07-29T10:02:59;23.60;58.80
59977;DHT22;45837;51.076;3.578;2023-07-29T10:05:25;23.60;58.60
59977;DHT22;45837;51.076;3.578;2023-07-29T10:07:51;23.60;58.00
59977;DHT22;45837;51.076;3.578;2023-07-29T10:10:17;23.60;58.40
59977;DHT22;45837;51.076;3.578;2023-07-29T10:12:43;23.60;58.40
59977;DHT22;45837;51.076;3.578;2023-07-29T10:15:09;23.60;58.40
59977;DHT22;45837;51.076;3.578;2023-07-29T10:17:35;23.60;58.10
59977;DHT22;45837;51.076;3.578;2023-07-29T10:20:03;23.60;58.20
59977;DHT22;45837;51.076;3.578;2023-07-29T10:22:31;23.60;58.00
59977;DHT22;45837;51.076;3.578;2023-07-29T10:24:59;23.60;58.10
59977;DHT22;45837;51.076;3.578;2023-07-29T10:27:28;23.60;58.00
59977;DHT22;45837;51.076;3.578;2023-07-29T10:29:55;23.60;58.10
59977;DHT22;45837;51.076;3.578;2023-07-29T10:32:21;23.60;58.10
59977;DHT22;45837;51.076;3.578;2023-07-29T10:34:48;23.60;58.00
59977;DHT22;45837;51.076;3.578;2023-07-29T10:37:14;23.60;58.70
59977;DHT22;45837;51.076;3.578;2023-07-29T10:39:40;23.60;58.00
59977;DHT22;45837;51.076;3.578;2023-07-29T10:42:06;23.60;58.00
59977;DHT22;45837;51.076;3.578;2023-07-29T10:44:45;23.60;58.30
59977;DHT22;45837;51.076;3.578;2023-07-29T10:47:15;23.60;57.90
59977;DHT22;45837;51.076;3.578;2023-07-29T10:49:41;23.60;57.90
59977;DHT22;45837;51.076;3.578;2023-07-29T10:52:07;23.60;58.10
59977;DHT22;45837;51.076;3.578;2023-07-29T10:54:42;23.60;58.60
59977;DHT22;45837;51.076;3.578;2023-07-29T10:57:12;23.60;58.10
59977;DHT22;45837;51.076;3.578;2023-07-29T10:59:37;23.60;58.20
59977;DHT22;45837;51.076;3.578;2023-07-29T11:02:03;23.60;58.80
59977;DHT22;45837;51.076;3.578;2023-07-29T11:04:45;23.60;58.30
59977;DHT22;45837;51.076;3.578;2023-07-29T11:09:41;23.60;58.50
59977;DHT22;45837;51.076;3.578;2023-07-29T11:14:51;23.60;58.20
59977;DHT22;45837;51.076;3.578;2023-07-29T11:17:17;23.60;58.90
59977;DHT22;45837;51.076;3.578;2023-07-29T11:19:43;23.60;58.90
59977;DHT22;45837;51.076;3.578;2023-07-29T11:22:09;23.60;58.40
59977;DHT22;45837;51.076;3.578;2023-07-29T11:24:35;23.00;58.00
59977;DHT22;45837;51.076;3.578;2023-07-29T11:27:00;23.60;59.00
59977;DHT22;45837;51.076;3.578;2023-07-29T11:29:26;23.60;59.00
59977;DHT22;45837;51.076;3.578;2023-07-29T11:31:52;23.60;58.90
59977;DHT22;45837;51.076;3.578;2023-07-29T11:34:18;23.60;58.80
59977;DHT22;45837;51.076;3.578;2023-07-29T11:36:46;23.60;58.60
59977;DHT22;45837;51.076;3.578;2023-07-29T11:39:11;23.70;58.90
59977;DHT22;45837;51.076;3.578;2023-07-29T11:41:37;23.60;58.90
59977;DHT22;45837;51.076;3.578;2023-07-29T11:44:03;23.60;58.70
59977;DHT22;45837;51.076;3.578;2023-07-29T11:46:28;23.70;58.80
59977;DHT22;45837;51.076;3.578;2023-07-29T11:48:54;23.70;58.90
59977;DHT22;45837;51.076;3.578;2023-07-29T11:51:21;23.70;58.50
59977;DHT22;45837;51.076;3.578;2023-07-29T11:53:47;23.70;58.40
59977;DHT22;45837;51.076;3.578;2023-07-29T11:56:12;23.70;59.10
59977;DHT22;45837;51.076;3.578;2023-07-29T11:58:38;23.70;58.60
59977;DHT22;45837;51.076;3.578;2023-07-29T12:01:04;23.70;59.40
59977;DHT22;45837;51.076;3.578;2023-07-29T12:03:30;23.70;58.40
59977;DHT22;45837;51.076;3.578;2023-07-29T12:05:56;23.70;58.90
59977;DHT22;45837;51.076;3.578;2023-07-29T12:08:22;23.70;59.00
59977;DHT22;45837;51.076;3.578;2023-07-29T12:10:48;23.70;58.80
59977;DHT22;45837;51.076;3.578;2023-07-29T12:13:14;23.70;58.80
59977;DHT22;45837;51.076;3.578;2023-07-29T12:15:40;23.70;58.70
59977;DHT22;45837;51.076;3.578;2023-07-29T12:18:06;23.70;59.00
59977;DHT22;45837;51.076;3.578;2023-07-29T12:20:31;23.70;59.20
59977;DHT22;45837;51.076;3.578;2023-07-29T12:22:58;23.70;58.90
59977;DHT22;45837;51.076;3.578;2023-07-29T12:25:24;23.70;58.50
59977;DHT22;45837;51.076;3.578;2023-07-29T12:27:51;23.70;58.60
59977;DHT22;45837;51.076;3.578;2023-07-29T12:30:19;23.70;59.20
59977;DHT22;45837;51.076;3.578;2023-07-29T12:32:45;23.70;58.40
59977;DHT22;45837;51.076;3.578;2023-07-29T12:35:12;23.70;58.50
59977;DHT22;45837;51.076;3.578;2023-07-29T12:37:37;23.70;58.60
59977;DHT22;45837;51.076;3.578;2023-07-29T12:40:04;23.70;58.80
59977;DHT22;45837;51.076;3.578;2023-07-29T12:42:30;23.70;58.50
59977;DHT22;45837;51.076;3.578;2023-07-29T12:44:56;23.80;59.00
59977;DHT22;45837;51.076;3.578;2023-07-29T12:47:21;23.70;59.10
59977;DHT22;45837;51.076;3.578;2023-07-29T12:49:47;23.80;59.40
59977;DHT22;45837;51.076;3.578;2023-07-29T12:52:13;23.80;59.10
59977;DHT22;45837;51.076;3.578;2023-07-29T12:54:38;23.80;59.00
59977;DHT22;45837;51.076;3.578;2023-07-29T12:57:05;23.80;59.00
59977;DHT22;45837;51.076;3.578;2023-07-29T12:59:31;23.70;58.60
59977;DHT22;45837;51.076;3.578;2023-07-29T13:01:57;23.70;59.00
59977;DHT22;45837;51.076;3.578;2023-07-29T13:04:23;23.80;58.80
59977;DHT22;45837;51.076;3.578;2023-07-29T13:06:48;23.70;59.00
59977;DHT22;45837;51.076;3.578;2023-07-29T13:09:14;23.80;59.40
59977;DHT22;45837;51.076;3.578;2023-07-29T13:11:39;23.70;59.00
59977;DHT22;45837;51.076;3.578;2023-07-29T13:14:05;23.70;59.10
59977;DHT22;45837;51.076;3.578;2023-07-29T13:16:31;23.80;59.00
59977;DHT22;45837;51.076;3.578;2023-07-29T13:18:57;23.80;59.20
59977;DHT22;45837;51.076;3.578;2023-07-29T13:21:22;23.70;58.80
59977;DHT22;45837;51.076;3.578;2023-07-29T13:23:48;23.80;58.60
59977;DHT22;45837;51.076;3.578;2023-07-29T13:26:14;23.70;59.10
59977;DHT22;45837;51.076;3.578;2023-07-29T13:28:40;23.70;59.00
59977;DHT22;45837;51.076;3.578;2023-07-29T13:31:05;23.80;59.20
59977;DHT22;45837;51.076;3.578;2023-07-29T13:33:31;23.80;58.90
59977;DHT22;45837;51.076;3.578;2023-07-29T13:35:59;23.80;58.80
59977;DHT22;45837;51.076;3.578;2023-07-29T13:38:25;23.80;58.40
59977;DHT22;45837;51.076;3.578;2023-07-29T13:40:51;23.80;59.30
59977;DHT22;45837;51.076;3.578;2023-07-29T13:43:16;23.80;59.20
59977;DHT22;45837;51.076;3.578;2023-07-29T13:45:43;23.80;59.10
59977;DHT22;45837;51.076;3.578;2023-07-29T13:48:08;23.80;59.30
59977;DHT22;45837;51.076;3.578;2023-07-29T13:50:34;23.80;58.80
59977;DHT22;45837;51.076;3.578;2023-07-29T13:53:00;23.80;59.00
59977;DHT22;45837;51.076;3.578;2023-07-29T13:55:25;23.80;59.40
59977;DHT22;45837;51.076;3.578;2023-07-29T13:57:52;23.80;59.10
59977;DHT22;45837;51.076;3.578;2023-07-29T14:00:17;23.80;58.50
59977;DHT22;45837;51.076;3.578;2023-07-29T14:02:43;23.80;59.30
59977;DHT22;45837;51.076;3.578;2023-07-29T14:05:11;23.80;59.30
59977;DHT22;45837;51.076;3.578;2023-07-29T14:07:37;23.80;58.80
59977;DHT22;45837;51.076;3.578;2023-07-29T14:10:03;23.80;58.90
59977;DHT22;45837;51.076;3.578;2023-07-29T14:12:28;23.80;58.90
59977;DHT22;45837;51.076;3.578;2023-07-29T14:14:54;23.80;59.00
59977;DHT22;45837;51.076;3.578;2023-07-29T14:17:19;23.80;59.00
59977;DHT22;45837;51.076;3.578;2023-07-29T14:19:45;23.80;59.20
59977;DHT22;45837;51.076;3.578;2023-07-29T14:22:11;23.80;59.00
59977;DHT22;45837;51.076;3.578;2023-07-29T14:24:36;23.80;59.00
59977;DHT22;45837;51.076;3.578;2023-07-29T14:27:02;23.80;58.80
59977;DHT22;45837;51.076;3.578;2023-07-29T14:29:28;23.80;58.70
59977;DHT22;45837;51.076;3.578;2023-07-29T14:31:54;23.80;58.90
59977;DHT22;45837;51.076;3.578;2023-07-29T14:34:19;23.80;58.90
59977;DHT22;45837;51.076;3.578;2023-07-29T14:36:45;23.80;58.80
59977;DHT22;45837;51.076;3.578;2023-07-29T14:39:11;23.80;58.80
59977;DHT22;45837;51.076;3.578;2023-07-29T14:41:36;23.80;58.80
59977;DHT22;45837;51.076;3.578;2023-07-29T14:44:02;23.80;59.00
59977;DHT22;45837;51.076;3.578;2023-07-29T14:46:28;23.80;58.90
59977;DHT22;45837;51.076;3.578;2023-07-29T14:48:53;23.80;59.40
59977;DHT22;45837;51.076;3.578;2023-07-29T14:51:19;23.80;59.20
59977;DHT22;45837;51.076;3.578;2023-07-29T14:53:45;23.80;59.00
59977;DHT22;45837;51.076;3.578;2023-07-29T14:56:10;23.80;59.00
59977;DHT22;45837;51.076;3.578;2023-07-29T14:58:36;23.80;59.00
59977;DHT22;45837;51.076;3.578;2023-07-29T15:01:02;23.80;59.10
59977;DHT22;45837;51.076;3.578;2023-07-29T15:03:27;23.80;59.20
59977;DHT22;45837;51.076;3.578;2023-07-29T15:05:53;23.80;58.90
59977;DHT22;45837;51.076;3.578;2023-07-29T15:08:19;23.90;59.00
59977;DHT22;45837;51.076;3.578;2023-07-29T15:10:45;23.90;59.30
59977;DHT22;45837;51.076;3.578;2023-07-29T15:13:11;23.90;58.60
59977;DHT22;45837;51.076;3.578;2023-07-29T15:15:40;23.90;59.10
59977;DHT22;45837;51.076;3.578;2023-07-29T15:18:05;23.90;58.60
59977;DHT22;45837;51.076;3.578;2023-07-29T15:20:31;23.90;59.00
59977;DHT22;45837;51.076;3.578;2023-07-29T15:22:57;23.90;58.90
59977;DHT22;45837;51.076;3.578;2023-07-29T15:25:22;23.90;59.30
59977;DHT22;45837;51.076;3.578;2023-07-29T15:27:48;23.90;59.10
59977;DHT22;45837;51.076;3.578;2023-07-29T15:30:14;23.90;59.20
59977;DHT22;45837;51.076;3.578;2023-07-29T15:32:39;23.90;58.90